Time;durP1;ratioP1;P1;durP2;ratioP2;P2;SDS_P1;SDS_P2;PMS_P1;PMS_P2;Temp;Humidity;BMP_temperature;BMP_pressure;BME280_temperature;BME280_humidity;BME280_pressure;Samples;Min_cycle;Max_cycle;Signal;HPM_P1;HPM_P2
2021/12/19 00:18:48;;;;;;;4.93;2.43;;;;;;;;;;21127430;28;20268;-68
2021/12/19 00:28:50;;;;;;;4.13;2.30;;;4.70;99.90;;;;;;21093860;28;20219;-68
2021/12/19 00:38:53;;;;;;;3.63;2.53;;;;;;;;;;21125472;28;20235;-68
2021/12/19 00:48:55;;;;;;;6.53;2.23;;;4.70;99.90;;;;;;21108330;28;20215;-68
2021/12/19 00:58:58;;;;;;;3.23;2.30;;;;;;;;;;21140811;28;20200;-68
2021/12/19 01:24:38;;;;;;;3.80;1.93;;;;;;;;;;21267304;27;20566;-67
2021/12/19 01:34:39;;;;;;;3.87;1.90;;;;;;;;;;21178678;27;20203;-67
2021/12/19 01:44:44;;;;;;;3.43;2.47;;;;;;;;;;21160663;27;20203;-67
2021/12/19 01:54:46;;;;;;;3.10;2.13;;;;;;;;;;21194248;27;20215;-68
2021/12/19 02:04:48;;;;;;;3.23;1.87;;;4.60;99.90;;;;;;21193455;27;20229;-67
2021/12/19 02:14:50;;;;;;;3.23;2.00;;;;;;;;;;21157078;27;20203;-67
2021/12/19 02:24:54;;;;;;;2.07;1.17;;;;;;;;;;21173821;27;20208;-67
2021/12/19 02:34:59;;;;;;;2.50;1.50;;;;;;;;;;21106898;28;20249;-67
2021/12/19 02:55:21;;;;;;;2.87;1.93;;;;;;;;;;21132439;28;20755;-67
2021/12/19 03:05:23;;;;;;;1.70;1.40;;;;;;;;;;21098493;28;20284;-67
2021/12/19 03:25:46;;;;;;;1.67;0.90;;;;;;;;;;21108731;28;20219;-67
2021/12/19 03:35:48;;;;;;;2.50;1.60;;;;;;;;;;21112009;28;20211;-67
2021/12/19 03:45:50;;;;;;;1.80;1.33;;;;;;;;;;21094465;28;20293;-67
2021/12/19 03:55:52;;;;;;;2.27;1.67;;;4.50;99.90;;;;;;21127214;28;20280;-67
2021/12/19 04:05:54;;;;;;;3.23;1.67;;;;;;;;;;21109659;28;20308;-67
2021/12/19 04:15:56;;;;;;;2.50;1.90;;;;;;;;;;21093021;28;20220;-67
2021/12/19 04:25:58;;;;;;;2.20;1.57;;;;;;;;;;21124502;28;20204;-67
2021/12/19 04:36:04;;;;;;;3.00;1.70;;;;;;;;;;21091448;28;20208;-67
2021/12/19 05:16:44;;;;;;;2.27;1.50;;;;;;;;;;21106396;28;20219;-67
2021/12/19 05:26:47;;;;;;;1.40;1.00;;;;;;;;;;21104566;28;20272;-67
2021/12/19 05:47:16;;;;;;;1.60;0.90;;;;;;;;;;21074309;28;20280;-67
2021/12/19 05:57:20;;;;;;;4.63;1.47;;;;;;;;;;21087973;28;20207;-66
2021/12/19 06:07:22;;;;;;;1.40;0.80;;;;;;;;;;21096625;28;20216;-67
2021/12/19 06:17:23;;;;;;;1.77;1.07;;;;;;;;;;21119215;28;20220;-67
2021/12/19 06:27:25;;;;;;;2.20;1.30;;;;;;;;;;21111504;28;20274;-67
2021/12/19 06:37:27;;;;;;;2.10;1.30;;;;;;;;;;21117305;28;20216;-67
2021/12/19 06:47:29;;;;;;;2.57;1.37;;;;;;;;;;21100099;28;20261;-66
2021/12/19 06:57:31;;;;;;;1.97;1.30;;;;;;;;;;21115631;28;20229;-67
2021/12/19 07:07:33;;;;;;;1.43;0.77;;;;;;;;;;21131391;28;20691;-66
2021/12/19 07:17:35;;;;;;;1.00;0.80;;;;;;;;;;21114259;28;20754;-66
2021/12/19 07:27:37;;;;;;;0.50;0.40;;;;;;;;;;21108163;28;20644;-66
2021/12/19 07:37:39;;;;;;;0.70;0.40;;;;;;;;;;21085676;28;20264;-67
2021/12/19 07:47:42;;;;;;;0.87;0.50;;;4.60;99.90;;;;;;21034059;28;20224;-67
2021/12/19 07:57:44;;;;;;;0.87;0.53;;;;;;;;;;21043892;28;20368;-67
2021/12/19 08:07:47;;;;;;;1.00;0.80;;;;;;;;;;21059527;28;20278;-68
2021/12/19 08:17:49;;;;;;;0.80;0.53;;;;;;;;;;21003679;22;20237;-69
2021/12/19 08:27:51;;;;;;;0.40;0.40;;;;;;;;;;20973952;28;20229;-69
2021/12/19 08:37:53;;;;;;;0.40;0.40;;;;;;;;;;20991609;28;20593;-70
2021/12/19 08:47:55;;;;;;;0.70;0.57;;;;;;;;;;20988528;28;20316;-70
2021/12/19 08:57:57;;;;;;;1.03;0.67;;;;;;;;;;20991699;28;20209;-70
2021/12/19 09:07:59;;;;;;;0.53;0.50;;;;;;;;;;20972839;28;20225;-70
2021/12/19 09:18:01;;;;;;;0.57;0.47;;;;;;;;;;20989002;28;20209;-69
2021/12/19 09:28:03;;;;;;;1.03;0.63;;;;;;;;;;20988184;28;20274;-70
2021/12/19 09:38:05;;;;;;;0.70;0.40;;;4.80;99.90;;;;;;20973796;28;20252;-72
2021/12/19 09:48:07;;;;;;;0.77;0.60;;;4.80;99.90;;;;;;21002593;28;20239;-72
2021/12/19 09:58:09;;;;;;;0.80;0.60;;;;;;;;;;20986740;28;20227;-72
2021/12/19 10:08:11;;;;;;;0.50;0.40;;;;;;;;;;20985743;28;20259;-70
2021/12/19 10:18:15;;;;;;;1.70;0.50;;;4.80;99.90;;;;;;21035064;28;20221;-72
2021/12/19 10:28:17;;;;;;;0.97;0.50;;;;;;;;;;21025902;28;20270;-72
2021/12/19 10:38:32;;;;;;;0.17;0.13;;;4.70;99.90;;;;;;21013927;28;20225;-72
2021/12/19 10:48:41;;;;;;;0.33;0.20;;;;;;;;;;21000703;28;20695;-70
2021/12/19 10:58:52;;;;;;;0.40;0.40;;;4.80;99.90;;;;;;20999186;28;20201;-72
2021/12/19 11:08:55;;;;;;;0.37;0.30;;;4.90;99.90;;;;;;20998581;28;20435;-72
2021/12/19 11:18:58;;;;;;;0.20;0.20;;;;;;;;;;20978670;28;20240;-72
2021/12/19 11:29:00;;;;;;;1.20;0.60;;;;;;;;;;20995056;28;20283;-72
2021/12/19 11:39:04;;;;;;;0.80;0.50;;;5.00;99.90;;;;;;21001981;28;20588;-71
2021/12/19 11:49:17;;;;;;;0.80;0.70;;;;;;;;;;20992658;28;20221;-71
2021/12/19 11:59:20;;;;;;;0.73;0.47;;;;;;;;;;20990980;28;20205;-71
2021/12/19 12:09:24;;;;;;;0.20;0.20;;;5.20;99.90;;;;;;20989632;28;20270;-71
2021/12/19 12:19:48;;;;;;;1.40;0.60;;;5.10;99.90;;;;;;20989915;28;20213;-71
2021/12/19 12:29:50;;;;;;;1.20;0.63;;;;;;;;;;20989241;28;20668;-71
2021/12/19 12:40:29;;;;;;;2.77;1.17;;;;;;;;;;20987179;28;20266;-72
2021/12/19 12:50:31;;;;;;;2.20;0.93;;;;;;;;;;20972478;28;20290;-71
2021/12/19 13:00:33;;;;;;;1.10;0.73;;;;;;;;;;20987249;28;20271;-72
2021/12/19 13:10:35;;;;;;;0.83;0.70;;;;;;;;;;20987339;28;20338;-71
2021/12/19 13:20:38;;;;;;;1.07;0.60;;;;;;;;;;20968835;28;20788;-72
2021/12/19 13:30:42;;;;;;;2.23;1.20;;;5.20;99.90;;;;;;20986121;28;20217;-71
2021/12/19 13:40:45;;;;;;;2.03;0.73;;;;;;;;;;20985745;28;20220;-71
2021/12/19 13:50:48;;;;;;;0.20;0.20;;;;;;;;;;20984128;28;20213;-72
2021/12/19 14:00:52;;;;;;;1.47;1.13;;;;;;;;;;20950538;28;20205;-71
2021/12/19 14:11:16;;;;;;;1.50;0.93;;;5.10;99.90;;;;;;20984568;28;20229;-73
2021/12/19 14:21:48;;;;;;;1.47;0.80;;;;;;;;;;20976899;28;20291;-73
2021/12/19 14:31:51;;;;;;;1.00;0.73;;;;;;;;;;20966627;28;20237;-73
2021/12/19 14:42:14;;;;;;;1.63;0.80;;;;;;;;;;20994105;28;20220;-72
2021/12/19 14:52:26;;;;;;;1.03;0.70;;;;;;;;;;20979614;28;20658;-72
2021/12/19 15:02:28;;;;;;;1.00;0.60;;;;;;;;;;20996795;28;20220;-72
2021/12/19 15:12:30;;;;;;;1.37;0.50;;;;;;;;;;20994797;28;20220;-72
2021/12/19 15:22:33;;;;;;;1.93;1.27;;;;;;;;;;20970327;28;20286;-72
2021/12/19 15:32:34;;;;;;;1.27;0.80;;;;;;;;;;20993515;28;20241;-72
2021/12/19 15:42:36;;;;;;;1.20;1.00;;;;;;;;;;20989279;28;20645;-71
2021/12/19 15:52:38;;;;;;;1.03;0.90;;;;;;;;;;20991733;28;20302;-72
2021/12/19 16:02:40;;;;;;;1.30;0.73;;;4.40;99.90;;;;;;20983870;28;20209;-72
2021/12/19 16:12:44;;;;;;;1.27;0.90;;;;;;;;;;20978957;28;20294;-71
2021/12/19 16:22:46;;;;;;;1.00;0.70;;;;;;;;;;20965908;28;20225;-71
2021/12/19 16:32:53;;;;;;;0.97;0.53;;;;;;;;;;20986652;28;20361;-71
2021/12/19 16:53:16;;;;;;;1.23;0.67;;;;;;;;;;20978676;28;20228;-71
2021/12/19 17:03:22;;;;;;;1.27;0.83;;;;;;;;;;20985083;28;20231;-70
2021/12/19 17:13:43;;;;;;;1.70;1.00;;;;;;;;;;20914043;28;20255;-71
2021/12/19 17:23:59;;;;;;;0.97;0.67;;;4.80;99.90;;;;;;20956730;28;20279;-72
2021/12/19 17:34:03;;;;;;;1.10;0.80;;;;;;;;;;20953420;28;20723;-72
2021/12/19 17:44:06;;;;;;;1.33;0.70;;;4.90;99.90;;;;;;20941067;28;20765;-72
2021/12/19 17:54:08;;;;;;;1.33;0.70;;;;;;;;;;20952767;28;20310;-72
2021/12/19 18:04:15;;;;;;;1.53;0.70;;;;;;;;;;20953487;28;20217;-72
2021/12/19 18:14:17;;;;;;;1.07;0.80;;;;;;;;;;20964418;28;20233;-72
2021/12/19 18:24:19;;;;;;;7.07;1.83;;;;;;;;;;20959254;28;20239;-72
2021/12/19 18:34:24;;;;;;;1.40;1.10;;;;;;;;;;20956396;28;20225;-71
2021/12/19 18:44:42;;;;;;;1.50;1.00;;;;;;;;;;20984983;28;20213;-70
2021/12/19 18:55:03;;;;;;;1.73;1.20;;;;;;;;;;20991196;28;20217;-70
2021/12/19 19:05:12;;;;;;;1.27;0.90;;;;;;;;;;20980069;28;20676;-70
2021/12/19 19:15:17;;;;;;;1.50;0.87;;;;;;;;;;20977449;28;20700;-70
2021/12/19 19:25:19;;;;;;;2.23;1.17;;;;;;;;;;20956237;28;20586;-70
2021/12/19 19:35:26;;;;;;;1.23;0.90;;;4.50;99.90;;;;;;20963974;28;20229;-70
2021/12/19 19:55:49;;;;;;;2.17;1.13;;;;;;;;;;20954585;28;20381;-70
2021/12/19 20:05:51;;;;;;;2.37;1.37;;;5.60;99.90;;;;;;20963212;28;20220;-70
2021/12/19 20:15:54;;;;;;;3.00;1.37;;;;;;;;;;20965857;22;20473;-67
2021/12/19 20:25:57;;;;;;;2.20;1.73;;;;;;;;;;20943719;28;20218;-67
2021/12/19 20:35:59;;;;;;;4.00;1.07;;;;;;;;;;20928408;28;20221;-67
2021/12/19 20:46:01;;;;;;;2.73;1.57;;;;;;;;;;20911191;28;20213;-67
2021/12/19 20:56:03;;;;;;;4.30;2.23;;;;;;;;;;20897521;28;20259;-67
2021/12/19 21:06:05;;;;;;;4.70;1.77;;;;;;;;;;20895733;28;20290;-67
2021/12/19 21:26:28;;;;;;;4.43;2.70;;;;;;;;;;20944194;28;20263;-67
2021/12/19 21:46:51;;;;;;;4.33;2.53;;;;;;;;;;20978008;28;20281;-67
2021/12/19 21:56:54;;;;;;;4.00;2.23;;;;;;;;;;20963614;28;20254;-67
2021/12/19 22:06:56;;;;;;;3.47;1.80;;;;;;;;;;20958277;28;20216;-67
2021/12/19 22:16:58;;;;;;;3.00;1.90;;;;;;;;;;20938591;28;20229;-66
2021/12/19 22:26:59;;;;;;;2.57;1.73;;;;;;;;;;20933389;28;20271;-67
2021/12/19 22:37:01;;;;;;;2.57;1.50;;;;;;;;;;20979909;28;20197;-67
2021/12/19 22:47:03;;;;;;;2.47;1.37;;;4.60;99.90;;;;;;20960713;28;20243;-67
2021/12/19 22:57:05;;;;;;;2.10;1.37;;;;;;;;;;20962657;28;20283;-67
2021/12/19 23:07:08;;;;;;;2.13;1.27;;;;;;;;;;20964775;28;20266;-67
2021/12/19 23:27:13;;;;;;;2.53;2.13;;;;;;;;;;20963325;28;20309;-67
2021/12/19 23:37:38;;;;;;;3.13;1.60;;;;;;;;;;20939609;28;20243;-67
2021/12/19 23:47:38;;;;;;;3.70;2.07;;;;;;;;;;20961070;28;20604;-67
2021/12/19 23:57:40;;;;;;;2.17;1.47;;;4.40;99.90;;;;;;20956949;28;20220;-67
